createdAt,value
2022-09-15T00:16:28.894Z,96774.56
2022-09-15T00:36:31.963Z,96760.81
2022-09-15T00:56:34.443Z,96731.56
2022-09-15T01:36:55.916Z,96678.53
2022-09-15T01:56:58.699Z,96659.25
2022-09-15T02:17:03.872Z,96658.81
2022-09-15T02:37:06.562Z,96631.28
2022-09-15T02:57:09.258Z,96616.37
2022-09-15T03:17:11.715Z,96612.91
2022-09-15T03:37:14.310Z,96608.94
2022-09-15T03:57:16.795Z,96600.09
2022-09-15T04:17:19.253Z,96599.97
2022-09-15T04:37:21.713Z,96601.41
2022-09-15T04:57:24.385Z,96604.09
2022-09-15T05:17:26.959Z,96588.97
2022-09-15T05:37:29.643Z,96587.53
2022-09-15T05:57:32.359Z,96598.59
2022-09-15T06:17:35.218Z,96632.91
2022-09-15T06:37:37.817Z,96669.47
2022-09-15T06:57:40.565Z,96699.09
2022-09-15T07:17:43.025Z,96747.25
2022-09-15T07:37:45.914Z,96818.38
2022-09-15T07:57:48.411Z,96871.75
2022-09-15T08:17:50.904Z,96889.41
2022-09-15T08:37:53.626Z,96935.78
2022-09-15T08:57:56.098Z,96957.63
2022-09-15T09:17:58.472Z,96948.12
2022-09-15T09:38:01.314Z,96955.69
2022-09-15T09:58:03.901Z,96946.06
2022-09-15T10:18:06.441Z,96936.06
2022-09-15T10:38:09.095Z,96925.53
2022-09-15T10:58:11.889Z,96926.66
2022-09-15T11:18:14.410Z,96918.16
2022-09-15T11:38:17.671Z,96912.19
2022-09-15T11:58:22.349Z,96905.22
2022-09-15T12:18:38.993Z,96865.72
2022-09-15T12:38:43.383Z,96853.66
2022-09-15T12:58:46.043Z,96876.06
2022-09-15T13:18:48.514Z,96872.41
2022-09-15T13:38:51.429Z,96838.41
2022-09-15T13:58:58.493Z,96867.69
2022-09-15T14:19:05.241Z,96862.38
2022-09-15T14:39:10.896Z,96853.94
2022-09-15T14:59:15.644Z,96845.13
2022-09-15T15:19:21.140Z,96818.75
2022-09-15T15:39:24.717Z,96818.47
2022-09-15T15:59:27.199Z,96850.00
2022-09-15T16:59:57.008Z,96881.53
2022-09-15T17:19:59.713Z,96902.78
2022-09-15T17:40:03.725Z,96911.06
2022-09-15T18:00:07.065Z,96895.03
2022-09-15T18:20:09.741Z,96910.50
2022-09-15T18:40:12.545Z,96917.34
2022-09-15T19:00:16.777Z,96908.16
2022-09-15T19:20:19.484Z,96922.50
2022-09-15T19:40:23.882Z,96943.69
2022-09-15T20:00:26.577Z,96955.13
2022-09-15T20:20:29.314Z,96960.03
2022-09-15T20:40:32.340Z,96956.03
2022-09-15T21:00:35.330Z,96973.06
2022-09-15T21:20:38.103Z,96979.06
2022-09-15T21:40:40.867Z,96998.94
2022-09-15T22:00:43.939Z,97027.22
2022-09-15T22:20:46.781Z,97042.59
2022-09-15T22:40:49.330Z,97049.75
2022-09-15T23:00:52.115Z,97054.19
2022-09-15T23:20:55.275Z,97073.50
2022-09-15T23:40:57.929Z,97078.97
